createdAt,value
2022-10-03T00:00:16.323Z,11.20
2022-10-03T00:02:51.937Z,10.57
2022-10-03T00:06:04.246Z,13.07
2022-10-03T00:09:28.834Z,12.77
2022-10-03T00:12:40.170Z,9.52
2022-10-03T00:15:32.386Z,8.35
2022-10-03T00:18:22.196Z,17.80
2022-10-03T00:21:51.974Z,12.15
2022-10-03T00:25:19.240Z,6.40
2022-10-03T00:28:39.147Z,17.95
2022-10-03T00:31:16.993Z,7.85
2022-10-03T00:34:26.469Z,8.65
2022-10-03T00:37:25.891Z,11.02
2022-10-03T00:40:55.821Z,14.88
2022-10-03T00:43:52.092Z,19.85
2022-10-03T00:46:52.625Z,17.45
2022-10-03T00:50:24.924Z,16.83
2022-10-03T00:53:51.911Z,14.77
2022-10-03T00:56:37.232Z,12.80
2022-10-03T00:59:55.778Z,13.93
2022-10-03T01:02:55.673Z,10.88
2022-10-03T01:05:58.543Z,9.48
2022-10-03T01:08:37.789Z,13.95
2022-10-03T01:12:36.341Z,13.23
2022-10-03T01:15:34.612Z,10.05
2022-10-03T01:18:53.000Z,21.55
2022-10-03T01:22:17.056Z,17.23
2022-10-03T01:25:11.044Z,11.88
2022-10-03T01:28:30.959Z,20.93
2022-10-03T01:31:06.268Z,13.90
2022-10-03T01:34:00.918Z,15.70
2022-10-03T01:37:17.390Z,10.82
2022-10-03T01:40:08.846Z,10.45
2022-10-03T01:43:03.344Z,13.07
2022-10-03T01:45:47.507Z,20.67
2022-10-03T01:49:14.032Z,20.77
2022-10-03T01:52:11.015Z,17.05
2022-10-03T01:55:08.236Z,18.15
2022-10-03T01:58:18.160Z,14.25
2022-10-03T02:01:08.170Z,14.52
2022-10-03T02:03:57.185Z,16.25
2022-10-03T02:07:06.796Z,16.52
2022-10-03T02:10:29.763Z,16.60
2022-10-03T02:13:40.923Z,14.00
2022-10-03T02:16:18.528Z,14.48
2022-10-03T02:18:48.842Z,17.55
2022-10-03T02:21:26.924Z,16.17
2022-10-03T02:24:15.489Z,14.50
2022-10-03T02:27:41.554Z,13.95
2022-10-03T02:30:32.040Z,13.98
2022-10-03T02:33:16.749Z,16.75
2022-10-03T02:36:45.033Z,15.52
2022-10-03T02:40:10.247Z,17.63
2022-10-03T02:43:19.435Z,15.23
2022-10-03T02:46:43.497Z,20.75
2022-10-03T02:50:00.881Z,10.82
2022-10-03T02:53:15.274Z,15.75
2022-10-03T02:56:20.985Z,9.82
2022-10-03T02:59:36.889Z,17.50
2022-10-03T03:02:28.541Z,16.05
2022-10-03T03:05:04.047Z,9.80
2022-10-03T03:08:20.095Z,15.25
2022-10-03T03:11:18.705Z,14.25
2022-10-03T03:14:48.754Z,13.73
2022-10-03T03:17:48.183Z,10.88
2022-10-03T03:20:56.020Z,12.48
2022-10-03T03:24:01.012Z,16.65
2022-10-03T03:27:27.298Z,21.15
2022-10-03T03:30:20.651Z,13.15
2022-10-03T03:32:59.552Z,17.73
2022-10-03T03:35:46.337Z,10.07
2022-10-03T03:38:37.850Z,16.13
2022-10-03T03:41:40.801Z,19.77
2022-10-03T03:45:29.477Z,15.45
2022-10-03T03:49:12.754Z,12.35
2022-10-03T03:52:18.830Z,13.93
2022-10-03T03:55:26.382Z,22.08
2022-10-03T03:58:24.226Z,22.95
2022-10-03T04:01:14.979Z,17.90
2022-10-03T04:04:20.028Z,13.95
2022-10-03T04:07:18.320Z,15.05
2022-10-03T04:10:18.834Z,12.93
2022-10-03T04:13:41.484Z,14.30
2022-10-03T04:17:01.000Z,20.20
2022-10-03T04:19:55.162Z,17.67
2022-10-03T04:23:12.464Z,23.17
2022-10-03T04:26:24.513Z,15.70
2022-10-03T04:29:17.329Z,15.70
2022-10-03T04:31:57.856Z,14.02
2022-10-03T04:35:00.617Z,20.90
2022-10-03T04:37:57.683Z,19.00
2022-10-03T04:40:54.252Z,14.98
2022-10-03T04:44:02.514Z,18.23
2022-10-03T04:47:01.109Z,13.32
2022-10-03T04:49:42.628Z,20.75
2022-10-03T04:52:51.939Z,18.65
2022-10-03T04:55:45.828Z,18.23
2022-10-03T04:58:43.215Z,15.77
2022-10-03T05:01:48.127Z,18.55
2022-10-03T05:04:43.370Z,11.60
2022-10-03T05:07:45.662Z,13.93
2022-10-03T05:10:48.560Z,16.30
2022-10-03T05:13:34.078Z,19.77
2022-10-03T05:17:04.322Z,19.50
2022-10-03T05:20:22.797Z,17.20
2022-10-03T05:23:47.831Z,22.20
2022-10-03T05:27:00.406Z,15.37
2022-10-03T05:30:15.383Z,19.40
2022-10-03T05:33:39.641Z,19.52
2022-10-03T05:36:24.760Z,17.73
2022-10-03T05:40:02.666Z,25.05
2022-10-03T05:42:46.470Z,20.13
2022-10-03T05:45:26.208Z,17.00
2022-10-03T05:48:41.195Z,14.05
2022-10-03T05:51:54.041Z,13.50
2022-10-03T05:55:24.383Z,25.45
2022-10-03T05:58:37.753Z,11.85
2022-10-03T06:01:57.751Z,19.75
2022-10-03T06:05:12.403Z,13.60
2022-10-03T06:08:26.982Z,15.18
2022-10-03T06:12:02.285Z,16.60
2022-10-03T06:15:05.272Z,17.70
2022-10-03T06:17:56.593Z,19.88
2022-10-03T06:21:19.089Z,12.68
2022-10-03T06:24:32.696Z,13.82
2022-10-03T06:27:43.242Z,22.80
2022-10-03T06:30:58.182Z,13.48
2022-10-03T06:34:10.370Z,17.63
2022-10-03T06:36:49.047Z,20.55
2022-10-03T06:40:17.271Z,15.50
2022-10-03T06:43:26.605Z,18.50
2022-10-03T06:46:46.747Z,16.45
2022-10-03T06:49:49.581Z,12.93
2022-10-03T06:53:12.390Z,14.20
2022-10-03T06:56:31.950Z,13.30
2022-10-03T06:59:37.153Z,10.45
2022-10-03T07:05:41.238Z,14.30
2022-10-03T07:09:16.197Z,7.82
2022-10-03T07:12:38.204Z,9.95
2022-10-03T07:16:27.007Z,15.65
2022-10-03T07:30:53.370Z,8.77
2022-10-03T07:34:30.849Z,7.03
2022-10-03T07:51:42.431Z,12.05
2022-10-03T07:55:03.424Z,10.75
2022-10-03T08:18:55.085Z,11.40
2022-10-03T08:25:38.650Z,12.45
2022-10-03T08:29:07.363Z,6.13
2022-10-03T08:53:08.517Z,7.03
2022-10-03T08:56:09.213Z,16.55
2022-10-03T08:59:31.104Z,10.93
2022-10-03T09:14:04.726Z,5.32
2022-10-03T09:17:21.562Z,9.23
2022-10-03T09:20:57.687Z,9.00
2022-10-03T09:28:03.313Z,8.00
2022-10-03T09:42:06.183Z,8.18
2022-10-03T09:44:51.616Z,6.82
2022-10-03T09:47:37.680Z,11.05
2022-10-03T09:50:42.142Z,12.45
2022-10-03T10:03:53.646Z,8.00
2022-10-03T10:17:22.892Z,7.57
2022-10-03T10:23:34.008Z,8.90
2022-10-03T10:26:43.770Z,11.82
2022-10-03T10:29:39.504Z,7.03
2022-10-03T10:33:06.480Z,4.53
2022-10-03T10:40:14.780Z,8.75
2022-10-03T10:44:16.637Z,12.00
2022-10-03T10:51:45.899Z,5.93
2022-10-03T10:54:54.022Z,7.85
2022-10-03T10:58:57.926Z,5.88
2022-10-03T11:02:27.149Z,8.30
2022-10-03T11:05:37.034Z,7.20
2022-10-03T11:12:42.896Z,9.13
2022-10-03T11:16:06.238Z,6.18
2022-10-03T11:19:43.210Z,5.18
2022-10-03T11:22:52.511Z,7.45
2022-10-03T11:26:25.825Z,6.68
2022-10-03T11:33:11.337Z,4.57
2022-10-03T11:36:05.179Z,5.22
2022-10-03T11:38:51.534Z,8.73
2022-10-03T11:42:33.874Z,5.38
2022-10-03T11:55:16.717Z,6.75
2022-10-03T11:58:06.384Z,4.40
2022-10-03T12:00:41.307Z,10.18
2022-10-03T12:03:26.845Z,9.68
2022-10-03T12:06:34.177Z,5.30
2022-10-03T12:09:25.213Z,6.72
2022-10-03T12:12:31.757Z,6.38
2022-10-03T12:19:16.557Z,4.68
2022-10-03T12:38:00.969Z,6.30
2022-10-03T12:40:46.487Z,6.25
2022-10-03T12:44:10.590Z,6.85
2022-10-03T12:47:56.394Z,4.80
2022-10-03T12:54:12.809Z,3.13
2022-10-03T12:57:30.579Z,5.63
2022-10-03T13:00:10.211Z,8.10
2022-10-03T13:02:54.501Z,5.63
2022-10-03T13:09:46.743Z,4.63
2022-10-03T13:12:48.018Z,8.65
2022-10-03T13:16:03.229Z,6.38
2022-10-03T13:21:55.142Z,4.22
2022-10-03T13:24:56.190Z,5.75
2022-10-03T13:27:53.080Z,4.90
2022-10-03T13:30:39.297Z,5.47
2022-10-03T13:33:27.746Z,10.80
2022-10-03T13:36:14.864Z,5.88
2022-10-03T13:39:25.740Z,4.63
2022-10-03T13:42:33.647Z,3.22
2022-10-03T13:45:40.532Z,5.57
2022-10-03T13:48:20.530Z,4.28
2022-10-03T13:51:06.128Z,7.68
2022-10-03T13:57:10.054Z,4.68
2022-10-03T13:59:58.674Z,5.45
2022-10-03T14:28:36.189Z,9.02
2022-10-03T14:31:34.805Z,4.35
2022-10-03T14:40:38.762Z,7.05
2022-10-03T14:53:07.661Z,4.68
2022-10-03T14:55:48.621Z,4.13
2022-10-03T14:58:22.116Z,9.80
2022-10-03T15:01:23.492Z,4.68
2022-10-03T15:18:33.600Z,6.22
2022-10-03T15:37:50.126Z,4.35
2022-10-03T16:11:25.855Z,7.22
2022-10-03T16:14:26.496Z,8.73
2022-10-03T16:17:39.267Z,8.48
2022-10-03T16:20:42.526Z,9.68
2022-10-03T16:23:50.337Z,9.00
2022-10-03T16:27:17.084Z,9.25
2022-10-03T16:36:08.064Z,9.98
2022-10-03T16:38:43.295Z,6.47
2022-10-03T16:41:44.126Z,11.82
2022-10-03T17:04:49.200Z,12.82
2022-10-03T17:07:38.255Z,14.18
2022-10-03T17:13:24.425Z,9.38
2022-10-03T17:19:45.094Z,7.65
2022-10-03T17:22:23.653Z,12.32
2022-10-03T17:25:18.870Z,14.77
2022-10-03T17:37:36.431Z,7.22
2022-10-03T17:40:30.114Z,8.32
2022-10-03T18:23:50.079Z,10.88
2022-10-03T18:26:45.335Z,10.70
2022-10-03T18:49:35.423Z,11.70
2022-10-03T18:52:30.500Z,12.85
2022-10-03T18:55:18.079Z,13.32
2022-10-03T18:58:13.389Z,13.63
2022-10-03T19:01:17.819Z,14.30
2022-10-03T19:03:59.142Z,13.68
2022-10-03T19:18:59.454Z,20.25
2022-10-03T19:56:06.436Z,14.07
2022-10-03T20:01:16.472Z,15.57
2022-10-03T20:03:57.811Z,13.75
2022-10-03T20:12:20.649Z,11.98
2022-10-03T20:14:51.708Z,17.38
2022-10-03T20:32:23.383Z,13.50
2022-10-03T20:45:07.037Z,24.40
2022-10-03T20:48:03.954Z,18.98
2022-10-03T20:50:49.261Z,13.07
2022-10-03T20:53:22.987Z,18.63
2022-10-03T20:56:12.154Z,16.75
2022-10-03T20:58:55.658Z,15.30
2022-10-03T21:01:35.463Z,21.83
2022-10-03T21:04:25.702Z,15.13
2022-10-03T21:07:16.073Z,16.08
2022-10-03T21:10:00.803Z,21.75
2022-10-03T21:12:59.001Z,18.08
2022-10-03T21:25:08.834Z,17.45
2022-10-03T21:27:52.548Z,18.35
2022-10-03T21:44:05.623Z,16.63
2022-10-03T21:47:03.964Z,22.25
2022-10-03T21:49:47.743Z,15.82
2022-10-03T21:53:07.674Z,17.58
2022-10-03T21:56:25.748Z,22.85
2022-10-03T21:59:38.522Z,11.80
2022-10-03T22:03:16.323Z,17.20
2022-10-03T22:05:55.746Z,13.40
2022-10-03T22:08:33.170Z,16.90
2022-10-03T22:11:40.585Z,15.30
2022-10-03T22:14:41.394Z,20.75
2022-10-03T22:17:37.065Z,11.25
2022-10-03T22:20:21.867Z,18.90
2022-10-03T22:23:12.920Z,20.70
2022-10-03T22:26:05.510Z,14.68
2022-10-03T22:29:16.690Z,20.83
2022-10-03T22:32:20.792Z,14.65
2022-10-03T22:35:30.891Z,16.80
2022-10-03T22:37:58.209Z,16.00
2022-10-03T22:40:27.554Z,15.00
2022-10-03T22:42:58.557Z,20.90
2022-10-03T22:45:32.985Z,18.80
2022-10-03T22:48:12.393Z,17.00
2022-10-03T22:50:43.341Z,17.83
2022-10-03T22:53:21.220Z,23.75
2022-10-03T22:55:58.397Z,16.02
2022-10-03T22:58:30.557Z,23.05
2022-10-03T23:01:02.270Z,13.05
2022-10-03T23:03:36.140Z,14.43
2022-10-03T23:06:53.637Z,16.33
2022-10-03T23:09:36.514Z,15.68
2022-10-03T23:12:11.205Z,15.32
2022-10-03T23:14:48.147Z,12.75
2022-10-03T23:17:42.619Z,19.38
2022-10-03T23:20:59.223Z,22.67
2022-10-03T23:24:13.729Z,13.15
2022-10-03T23:27:26.921Z,22.33
2022-10-03T23:30:11.942Z,13.93
2022-10-03T23:32:47.687Z,11.52
2022-10-03T23:35:41.358Z,18.90
2022-10-03T23:38:33.273Z,16.65
2022-10-03T23:41:08.224Z,14.07
2022-10-03T23:43:58.249Z,18.60
2022-10-03T23:46:31.003Z,18.38
2022-10-03T23:49:02.067Z,12.32
2022-10-03T23:51:36.423Z,17.92
2022-10-03T23:54:11.867Z,17.23
2022-10-03T23:56:46.693Z,12.60
2022-10-03T23:59:16.237Z,14.32
